Time;durP1;ratioP1;P1;durP2;ratioP2;P2;SDS_P1;SDS_P2;PMS_P1;PMS_P2;Temp;Humidity;BMP_temperature;BMP_pressure;BME280_temperature;BME280_humidity;BME280_pressure;Samples;Min_cycle;Max_cycle;Signal;HPM_P1;HPM_P2
2023/06/18 00:00:59;;;;;;;14.68;12.70;;;;;;;;;;5056148;28;20033;-67
2023/06/18 00:03:25;;;;;;;20.67;12.73;;;;;;;;;;5056006;28;20441;-66
2023/06/18 00:05:54;;;;;;;17.88;13.90;;;;;;;;;;5055938;28;20177;-67
2023/06/18 00:08:20;;;;;;;17.52;13.15;;;;;;;;;;5055387;28;20034;-66
2023/06/18 00:10:46;;;;;;;14.50;12.88;;;;;;;;;;5055683;28;20029;-66
2023/06/18 00:13:12;;;;;;;17.92;13.13;;;;;;;;;;5055870;28;20435;-66
2023/06/18 00:15:38;;;;;;;18.67;14.25;;;;;;;;;;5055936;28;20049;-66
2023/06/18 00:18:04;;;;;;;15.50;12.95;;;;;;;;;;5055499;28;20029;-67
2023/06/18 00:20:32;;;;;;;17.40;13.15;;;;;;;;;;5055360;28;20036;-66
2023/06/18 00:22:58;;;;;;;15.95;13.02;;;;;;;;;;5055638;28;20052;-66
2023/06/18 00:25:24;;;;;;;16.27;13.73;;;;;;;;;;5055575;28;20439;-66
2023/06/18 00:27:50;;;;;;;17.52;13.50;;;;;;;;;;5055552;28;20502;-66
2023/06/18 00:30:16;;;;;;;15.57;13.63;;;;;;;;;;5055444;28;20033;-67
2023/06/18 00:32:44;;;;;;;19.60;14.55;;;;;;;;;;5055351;28;20032;-66
2023/06/18 00:35:10;;;;;;;17.50;13.77;;;;;;;;;;5055413;28;20368;-66
2023/06/18 00:37:37;;;;;;;19.65;14.13;;;;;;;;;;5054929;28;20412;-66
2023/06/18 00:40:03;;;;;;;18.83;13.77;;;;;;;;;;5055228;28;20414;-66
2023/06/18 00:42:29;;;;;;;16.98;13.85;;;;;;;;;;5055157;28;20530;-66
2023/06/18 00:44:55;;;;;;;17.92;12.88;;;;;;;;;;5055108;28;20110;-67
2023/06/18 00:47:23;;;;;;;25.73;13.88;;;;;;;;;;5055166;28;20364;-66
2023/06/18 00:49:50;;;;;;;16.27;13.38;;;;;;;;;;5054742;28;20032;-66
2023/06/18 00:52:16;;;;;;;18.42;12.77;;;;;;;;;;5054922;28;20497;-66
2023/06/18 00:54:44;;;;;;;20.08;13.38;;;;;;;;;;5054835;28;20096;-67
2023/06/18 00:57:13;;;;;;;19.58;14.02;;;;;;;;;;5054885;28;20479;-66
2023/06/18 00:59:42;;;;;;;17.70;14.25;;;;;;;;;;5054946;28;20199;-66
2023/06/18 01:02:08;;;;;;;16.15;12.57;;;;;;;;;;5054768;28;20020;-66
2023/06/18 01:04:36;;;;;;;23.98;14.65;;;;;;;;;;5054658;28;20028;-66
2023/06/18 01:07:03;;;;;;;19.27;14.65;;;;;;;;;;5054816;28;20368;-66
2023/06/18 01:09:30;;;;;;;19.02;14.63;;;;;;;;;;5054756;28;20033;-66
2023/06/18 01:11:57;;;;;;;19.98;14.98;;;;;;;;;;5054346;28;20060;-66
2023/06/18 01:14:27;;;;;;;17.35;14.30;;;;;;;;;;5054765;28;20542;-66
2023/06/18 01:16:55;;;;;;;16.77;14.07;;;;;;;;;;5054297;28;20032;-67
2023/06/18 01:19:41;;;;;;;19.17;14.70;;;;;;;;;;5054476;28;20035;-66
2023/06/18 01:22:11;;;;;;;21.52;14.35;;;;;;;;;;5054440;28;20029;-66
2023/06/18 01:24:40;;;;;;;21.52;15.00;;;;;;;;;;5054351;28;20078;-66
2023/06/18 01:27:08;;;;;;;16.92;14.23;;;;;;;;;;5054512;28;20044;-66
2023/06/18 01:29:38;;;;;;;19.60;14.73;;;;;;;;;;5054421;28;20468;-66
2023/06/18 01:32:04;;;;;;;20.23;14.68;;;;;;;;;;5054197;28;20025;-66
2023/06/18 01:34:30;;;;;;;15.82;14.07;;;;;;;;;;5054386;28;20039;-66
2023/06/18 01:37:03;;;;;;;19.27;14.82;;;;;;;;;;5053836;28;20041;-66
2023/06/18 01:39:49;;;;;;;18.98;14.02;;;;;;;;;;5054305;28;20028;-66
2023/06/18 01:42:17;;;;;;;16.02;13.88;;;;;;;;;;5054011;28;20029;-66
2023/06/18 01:44:45;;;;;;;17.63;15.05;;;;;;;;;;5053871;28;20021;-66
2023/06/18 01:47:13;;;;;;;20.98;15.55;;;;;;;;;;5054040;28;20029;-66
2023/06/18 01:49:40;;;;;;;18.23;13.88;;;;;;;;;;5054028;28;20040;-66
2023/06/18 01:52:07;;;;;;;16.33;13.88;;;;;;;;;;5053913;28;20036;-66
2023/06/18 01:54:33;;;;;;;16.52;14.68;;;;;;;;;;5053966;28;20037;-66
2023/06/18 01:57:00;;;;;;;16.92;14.70;;;;;;;;;;5053864;28;20081;-66
2023/06/18 01:59:26;;;;;;;18.58;15.30;;;;;;;;;;5054057;28;20502;-66
2023/06/18 02:01:52;;;;;;;19.17;14.85;;;;;;;;;;5053777;28;20474;-66
2023/06/18 02:04:18;;;;;;;17.83;15.35;;;;;;;;;;5053679;28;20025;-66
2023/06/18 02:06:45;;;;;;;18.75;15.85;;;;;;;;;;5052979;28;20036;-66
2023/06/18 02:09:11;;;;;;;21.13;15.10;;;;;;;;;;5053531;28;20056;-66
2023/06/18 02:11:36;;;;;;;19.92;15.57;;;;;;;;;;5053694;28;20025;-66
2023/06/18 02:14:02;;;;;;;18.73;15.70;;;;;;;;;;5053440;28;20395;-67
2023/06/18 02:16:28;;;;;;;18.90;15.70;;;;;;;;;;5053630;28;20025;-66
2023/06/18 02:18:54;;;;;;;20.65;16.75;;;;;;;;;;5053075;28;20020;-66
2023/06/18 02:21:20;;;;;;;19.48;15.68;;;;;;;;;;5053104;28;20112;-66
2023/06/18 02:23:46;;;;;;;19.60;16.08;;;;;;;;;;5053501;28;20032;-66
2023/06/18 02:26:13;;;;;;;16.92;14.90;;;;;;;;;;5053459;28;20048;-66
2023/06/18 02:28:39;;;;;;;19.60;15.35;;;;;;;;;;5053322;28;20395;-65
2023/06/18 02:31:06;;;;;;;20.80;15.93;;;;;;;;;;5053256;28;20033;-66
2023/06/18 02:33:32;;;;;;;20.27;16.30;;;;;;;;;;5053241;28;20184;-66
2023/06/18 02:35:58;;;;;;;20.35;15.95;;;;;;;;;;5052969;28;20036;-66
2023/06/18 02:38:24;;;;;;;17.55;15.73;;;;;;;;;;5052978;28;20033;-66
2023/06/18 02:40:50;;;;;;;19.83;16.25;;;;;;;;;;5052857;28;20028;-65
2023/06/18 02:43:17;;;;;;;19.33;15.60;;;;;;;;;;5053090;28;20144;-65
2023/06/18 02:45:43;;;;;;;21.90;16.98;;;;;;;;;;5053039;28;20025;-66
2023/06/18 02:48:08;;;;;;;18.80;16.60;;;;;;;;;;5052853;28;20380;-66
2023/06/18 02:50:35;;;;;;;22.55;16.95;;;;;;;;;;5053048;28;20084;-66
2023/06/18 02:53:01;;;;;;;19.17;16.92;;;;;;;;;;5053152;28;20025;-65
2023/06/18 02:55:27;;;;;;;20.35;17.88;;;;;;;;;;5053252;28;20029;-65
2023/06/18 02:57:53;;;;;;;20.00;17.25;;;;;;;;;;5052903;28;20025;-65
2023/06/18 03:00:21;;;;;;;24.92;18.70;;;;;;;;;;5053142;28;20052;-65
2023/06/18 03:02:47;;;;;;;22.98;17.70;;;;;;;;;;5053105;28;20021;-65
2023/06/18 03:05:13;;;;;;;20.48;17.05;;;;;;;;;;5053055;28;20029;-65
2023/06/18 03:07:39;;;;;;;24.40;17.88;;;;;;;;;;5053019;28;20064;-65
2023/06/18 03:10:05;;;;;;;19.83;17.17;;;;;;;;;;5053061;28;20025;-65
2023/06/18 03:12:31;;;;;;;23.92;18.10;;;;;;;;;;5053036;28;20171;-65
2023/06/18 03:14:57;;;;;;;21.30;17.25;;;;;;;;;;5052797;28;20509;-65
2023/06/18 03:17:23;;;;;;;21.92;17.02;;;;;;;;;;5052738;28;20029;-65
2023/06/18 03:19:49;;;;;;;19.70;15.90;;;;;;;;;;5054498;28;20048;-65
2023/06/18 03:22:15;;;;;;;19.65;16.70;;;;;;;;;;5056436;28;20013;-65
2023/06/18 03:24:41;;;;;;;21.52;16.63;;;;;;;;;;5056624;28;20021;-65
2023/06/18 03:27:07;;;;;;;19.80;16.73;;;;;;;;;;5056806;28;20035;-65
2023/06/18 03:29:35;;;;;;;19.83;15.73;;;;;;;;;;5056504;28;20064;-65
2023/06/18 03:32:01;;;;;;;21.00;16.98;;;;;;;;;;5056438;28;20028;-65
2023/06/18 03:34:27;;;;;;;21.60;18.70;;;;;;;;;;5056393;28;20029;-65
2023/06/18 03:36:54;;;;;;;23.80;18.95;;;;;;;;;;5056142;28;20415;-65
2023/06/18 03:39:20;;;;;;;24.50;19.58;;;;;;;;;;5056463;28;20485;-65
2023/06/18 03:41:46;;;;;;;24.67;19.55;;;;;;;;;;5056046;28;20032;-65
2023/06/18 03:44:12;;;;;;;24.20;18.27;;;;;;;;;;5056186;28;20028;-65
2023/06/18 03:46:38;;;;;;;20.23;17.77;;;;;;;;;;5056397;28;20028;-65
2023/06/18 03:49:04;;;;;;;19.13;16.52;;;;;;;;;;5056189;28;20017;-65
2023/06/18 03:51:30;;;;;;;25.13;16.85;;;;;;;;;;5056060;28;20082;-65
2023/06/18 03:53:56;;;;;;;21.73;17.73;;;;;;;;;;5056008;28;20029;-65
2023/06/18 03:56:22;;;;;;;21.00;16.90;;;15.80;1.00;;;;;;5056179;28;20033;-65
2023/06/18 03:58:48;;;;;;;20.88;17.90;;;15.70;1.00;;;;;;5055762;28;20074;-66
2023/06/18 04:01:14;;;;;;;21.98;18.42;;;15.80;1.00;;;;;;5056080;28;20033;-66
2023/06/18 04:03:40;;;;;;;19.30;16.92;;;15.80;1.00;;;;;;5055908;28;20027;-66
2023/06/18 04:06:06;;;;;;;22.60;18.63;;;15.90;1.00;;;;;;5056019;28;20033;-66
2023/06/18 04:08:33;;;;;;;21.95;17.75;;;16.00;1.00;;;;;;5055889;28;20455;-66
2023/06/18 04:10:59;;;;;;;21.10;18.52;;;16.00;1.00;;;;;;5055800;28;20031;-66
2023/06/18 04:13:24;;;;;;;22.88;18.83;;;16.10;1.00;;;;;;5055654;28;20112;-66
2023/06/18 04:15:50;;;;;;;21.48;16.75;;;16.10;1.00;;;;;;5055757;28;20036;-66
2023/06/18 04:18:16;;;;;;;20.98;18.55;;;16.20;1.00;;;;;;5055516;28;20025;-66
2023/06/18 04:20:42;;;;;;;21.55;17.58;;;16.30;1.00;;;;;;5055724;28;20029;-66
2023/06/18 04:23:08;;;;;;;24.48;19.08;;;16.40;1.00;;;;;;5055707;28;20040;-66
2023/06/18 04:25:34;;;;;;;21.55;17.23;;;16.50;1.00;;;;;;5055530;28;20017;-66
2023/06/18 04:27:59;;;;;;;21.77;17.30;;;16.60;1.00;;;;;;5055491;28;20159;-66
2023/06/18 04:30:25;;;;;;;19.77;16.10;;;16.70;1.00;;;;;;5054979;28;20040;-66
2023/06/18 04:32:50;;;;;;;16.83;14.32;;;17.00;1.00;;;;;;5055231;28;20021;-66
2023/06/18 04:35:16;;;;;;;21.40;16.02;;;17.60;99.90;;;;;;5055248;28;20166;-66
2023/06/18 04:37:41;;;;;;;19.13;15.38;;;17.90;1.00;;;;;;5055034;28;20491;-66
2023/06/18 04:40:08;;;;;;;17.38;15.00;;;17.90;99.90;;;;;;5055222;28;20021;-66
2023/06/18 04:42:35;;;;;;;18.27;15.18;;;18.00;99.90;;;;;;5054909;28;20029;-66
2023/06/18 04:45:03;;;;;;;18.55;14.02;;;;;;;;;;5054886;28;20029;-66
2023/06/18 04:47:29;;;;;;;17.90;14.00;;;;;;;;;;5055083;28;20083;-66
2023/06/18 04:49:55;;;;;;;17.10;13.95;;;20.30;99.90;;;;;;5055150;28;20032;-66
2023/06/18 04:52:21;;;;;;;14.70;13.20;;;;;;;;;;5054889;28;20035;-66
2023/06/18 04:54:46;;;;;;;14.10;12.70;;;21.70;99.90;;;;;;5053964;28;20445;-66
2023/06/18 04:57:12;;;;;;;13.75;12.27;;;22.50;1.00;;;;;;5054806;28;20501;-66
2023/06/18 04:59:39;;;;;;;13.23;11.85;;;;;;;;;;5055092;28;20025;-67
2023/06/18 05:02:05;;;;;;;16.77;12.68;;;;;;;;;;5054794;28;20071;-67
2023/06/18 05:04:31;;;;;;;14.80;12.63;;;;;;;;;;5054782;28;20482;-66
2023/06/18 05:06:57;;;;;;;13.43;12.02;;;;;;;;;;5054661;28;20036;-66
2023/06/18 05:09:23;;;;;;;12.68;11.38;;;;;;;;;;5054646;28;20368;-66
2023/06/18 05:11:49;;;;;;;13.02;11.73;;;;;;;;;;5054596;28;20032;-66
2023/06/18 05:14:15;;;;;;;13.13;11.20;;;;;;;;;;5054513;28;20033;-67
2023/06/18 05:16:41;;;;;;;13.23;11.50;;;;;;;;;;5054474;28;20025;-66
2023/06/18 05:19:07;;;;;;;12.68;11.48;;;;;;;;;;5054644;28;20363;-66
2023/06/18 05:21:33;;;;;;;12.07;10.77;;;;;;;;;;5054677;28;20025;-66
2023/06/18 05:23:59;;;;;;;12.60;11.18;;;;;;;;;;5054410;28;20029;-67
2023/06/18 05:26:25;;;;;;;11.68;10.45;;;;;;;;;;5054275;28;20025;-67
2023/06/18 05:28:51;;;;;;;14.38;10.63;;;;;;;;;;5054196;28;20094;-67
2023/06/18 05:31:17;;;;;;;12.43;10.45;;;;;;;;;;5054202;28;20021;-66
2023/06/18 05:33:43;;;;;;;12.38;11.18;;;;;;;;;;5054313;28;20059;-66
2023/06/18 05:36:09;;;;;;;12.73;10.88;;;;;;;;;;5054038;28;20033;-66
2023/06/18 05:38:35;;;;;;;12.40;11.20;;;;;;;;;;5053831;28;20037;-67
2023/06/18 05:41:01;;;;;;;11.73;10.68;;;;;;;;;;5053817;28;20029;-67
2023/06/18 05:43:27;;;;;;;12.25;10.38;;;;;;;;;;5053223;28;20410;-66
2023/06/18 05:45:53;;;;;;;11.23;10.20;;;;;;;;;;5053890;28;20025;-67
2023/06/18 05:48:19;;;;;;;11.20;10.20;;;;;;;;;;5054101;28;20029;-67
2023/06/18 05:50:45;;;;;;;10.77;9.68;;;;;;;;;;5053617;28;20079;-67
2023/06/18 05:53:10;;;;;;;12.63;10.32;;;;;;;;;;5053774;28;20127;-67
2023/06/18 05:55:36;;;;;;;11.45;10.45;;;;;;;;;;5053768;28;20025;-66
2023/06/18 05:58:02;;;;;;;11.65;9.93;;;;;;;;;;5053668;28;20099;-67
2023/06/18 06:00:28;;;;;;;10.68;9.40;;;;;;;;;;5053714;28;20471;-67
2023/06/18 06:02:54;;;;;;;11.45;9.90;;;;;;;;;;5053532;28;20017;-67
2023/06/18 06:05:20;;;;;;;10.27;9.18;;;;;;;;;;5053568;28;20025;-67
2023/06/18 06:07:46;;;;;;;14.98;10.07;;;;;;;;;;5053417;28;20036;-67
2023/06/18 06:10:14;;;;;;;10.27;9.32;;;;;;;;;;5053727;28;20025;-67
2023/06/18 06:12:40;;;;;;;10.88;9.80;;;;;;;;;;5053521;28;20033;-67
2023/06/18 06:15:06;;;;;;;10.65;9.60;;;29.50;99.90;;;;;;5053634;28;20040;-67
2023/06/18 06:17:32;;;;;;;11.80;9.90;;;29.50;99.90;;;;;;5053472;28;20478;-67
2023/06/18 06:19:57;;;;;;;12.07;10.13;;;28.50;1.00;;;;;;5053150;28;20032;-67
2023/06/18 06:22:23;;;;;;;10.73;9.63;;;28.20;1.00;;;;;;5053263;28;20029;-67
2023/06/18 06:24:48;;;;;;;11.98;9.98;;;28.00;1.00;;;;;;5053121;28;20025;-67
2023/06/18 06:27:14;;;;;;;12.55;9.82;;;27.90;1.00;;;;;;5053311;28;20033;-68
2023/06/18 06:29:39;;;;;;;11.68;9.70;;;27.70;99.90;;;;;;5053426;28;20036;-67
2023/06/18 06:32:05;;;;;;;10.52;9.52;;;28.20;99.90;;;;;;5053431;28;20033;-68
2023/06/18 06:34:32;;;;;;;10.65;9.60;;;28.70;99.90;;;;;;5053347;28;20028;-67
2023/06/18 06:36:58;;;;;;;11.18;10.07;;;28.90;99.90;;;;;;5052847;28;20096;-67
2023/06/18 06:39:23;;;;;;;10.95;9.77;;;28.00;99.90;;;;;;5053267;28;20491;-67
2023/06/18 06:41:49;;;;;;;10.18;9.18;;;27.60;99.90;;;;;;5052881;28;20029;-67
2023/06/18 06:44:15;;;;;;;10.27;9.27;;;28.80;99.90;;;;;;5053100;28;20028;-66
2023/06/18 06:46:41;;;;;;;12.57;9.35;;;29.00;99.90;;;;;;5052114;28;20015;-67
2023/06/18 06:49:07;;;;;;;9.70;8.82;;;29.60;99.90;;;;;;5053045;28;20030;-67
2023/06/18 06:51:34;;;;;;;10.05;9.00;;;29.00;99.90;;;;;;5053197;28;20028;-67
2023/06/18 06:53:59;;;;;;;10.73;8.77;;;28.40;99.90;;;;;;5055268;28;20031;-67
2023/06/18 06:56:25;;;;;;;9.75;8.75;;;28.30;99.90;;;;;;5057116;28;20100;-67
2023/06/18 06:58:51;;;;;;;9.52;8.45;;;29.10;99.90;;;;;;5056766;28;20021;-67
2023/06/18 07:01:19;;;;;;;9.45;8.43;;;29.60;99.90;;;;;;5056995;28;20025;-67
2023/06/18 07:03:45;;;;;;;12.70;8.77;;;29.60;99.90;;;;;;5056997;28;20021;-67
2023/06/18 07:06:11;;;;;;;8.88;8.18;;;30.60;99.90;;;;;;5056995;28;20083;-67
2023/06/18 07:08:37;;;;;;;9.75;8.85;;;30.80;99.90;;;;;;5056977;28;20031;-67
2023/06/18 07:11:02;;;;;;;9.45;8.55;;;30.30;99.90;;;;;;5057028;28;20138;-67
2023/06/18 07:13:28;;;;;;;12.05;8.73;;;30.30;99.90;;;;;;5056826;28;20534;-67
2023/06/18 07:15:53;;;;;;;9.48;8.20;;;30.60;99.90;;;;;;5056861;28;20060;-67
2023/06/18 07:18:19;;;;;;;9.82;8.82;;;31.50;99.90;;;;;;5056463;28;20037;-67
2023/06/18 07:20:44;;;;;;;10.38;8.38;;;32.40;99.90;;;;;;5056732;28;20036;-67
2023/06/18 07:23:10;;;;;;;9.65;8.68;;;31.60;99.90;;;;;;5056867;28;20409;-67
2023/06/18 07:25:35;;;;;;;9.80;8.45;;;31.50;99.90;;;;;;5056607;28;20024;-67
2023/06/18 07:28:01;;;;;;;10.50;8.15;;;30.80;99.90;;;;;;5056603;28;20067;-67
2023/06/18 07:30:26;;;;;;;9.50;8.55;;;30.90;99.90;;;;;;5056395;28;20029;-67
2023/06/18 07:32:52;;;;;;;12.45;8.82;;;30.70;99.90;;;;;;5056412;28;20036;-67
2023/06/18 07:35:18;;;;;;;9.18;8.27;;;31.30;99.90;;;;;;5056682;28;20032;-67
2023/06/18 07:37:43;;;;;;;10.95;8.38;;;32.40;99.90;;;;;;5056103;28;20056;-67
2023/06/18 07:40:09;;;;;;;9.18;8.27;;;32.30;99.90;;;;;;5056297;28;20112;-68
2023/06/18 07:42:35;;;;;;;9.15;7.90;;;32.00;99.90;;;;;;5056148;28;20021;-67
2023/06/18 07:45:00;;;;;;;10.73;8.13;;;33.10;99.90;;;;;;5056145;28;20036;-67
2023/06/18 07:47:26;;;;;;;10.35;7.90;;;33.00;99.90;;;;;;5056187;28;20088;-67
2023/06/18 07:49:52;;;;;;;8.65;7.72;;;32.00;99.90;;;;;;5056102;28;20060;-67
2023/06/18 07:52:18;;;;;;;9.32;8.40;;;31.90;1.00;;;;;;5056122;28;20387;-67
2023/06/18 07:54:43;;;;;;;9.75;7.97;;;31.80;99.90;;;;;;5055816;28;20521;-67
2023/06/18 07:57:09;;;;;;;9.32;8.18;;;32.60;99.90;;;;;;5055880;28;20053;-67
2023/06/18 07:59:34;;;;;;;9.00;8.10;;;32.20;99.90;;;;;;5056173;28;20521;-67
2023/06/18 08:02:00;;;;;;;12.52;8.07;;;31.40;99.90;;;;;;5055807;28;20051;-67
2023/06/18 08:04:25;;;;;;;9.35;7.97;;;32.60;99.90;;;;;;5055569;28;20029;-67
2023/06/18 08:06:51;;;;;;;9.35;8.15;;;32.90;99.90;;;;;;5055133;28;20048;-67
2023/06/18 08:09:17;;;;;;;11.98;8.45;;;33.00;99.90;;;;;;5055998;28;20086;-67
2023/06/18 08:11:43;;;;;;;9.50;8.10;;;32.90;1.00;;;;;;5055695;28;20398;-67
2023/06/18 08:14:08;;;;;;;8.88;7.97;;;33.50;99.90;;;;;;5055906;28;20025;-67
2023/06/18 08:16:34;;;;;;;9.40;8.50;;;32.70;99.90;;;;;;5055660;28;20537;-67
2023/06/18 08:19:00;;;;;;;9.35;8.25;;;32.80;99.90;;;;;;5055491;28;20029;-67
2023/06/18 08:21:25;;;;;;;10.57;8.25;;;32.40;1.00;;;;;;5055573;28;20025;-67
2023/06/18 08:23:51;;;;;;;9.70;8.82;;;32.40;99.90;;;;;;5055487;28;20021;-67
2023/06/18 08:26:19;;;;;;;10.70;8.32;;;31.30;99.90;;;;;;5055459;28;20032;-67
2023/06/18 08:28:44;;;;;;;9.23;8.43;;;32.30;99.90;;;;;;5054223;28;20021;-68
2023/06/18 08:31:10;;;;;;;9.00;7.93;;;33.30;1.00;;;;;;5055417;28;20390;-68
2023/06/18 08:33:35;;;;;;;9.07;8.18;;;33.30;1.00;;;;;;5055506;28;20033;-67
2023/06/18 08:36:01;;;;;;;9.02;8.13;;;33.60;99.90;;;;;;5055084;28;20025;-68
2023/06/18 08:38:27;;;;;;;8.00;7.20;;;33.50;99.90;;;;;;5055122;28;20065;-67
2023/06/18 08:40:55;;;;;;;8.65;7.95;;;33.00;1.00;;;;;;5055197;28;20025;-67
2023/06/18 08:43:26;;;;;;;8.43;7.65;;;32.30;1.00;;;;;;5054910;28;20025;-67
2023/06/18 08:45:52;;;;;;;8.07;7.32;;;33.40;1.00;;;;;;5055116;28;20021;-67
2023/06/18 08:48:24;;;;;;;8.27;7.53;;;33.10;99.90;;;;;;5055093;28;20616;-67
2023/06/18 08:50:53;;;;;;;7.97;7.27;;;34.20;99.90;;;;;;5055075;28;20032;-67
2023/06/18 08:53:33;;;;;;;8.75;7.45;;;34.30;99.90;;;;;;5053877;28;20068;-67
2023/06/18 08:56:00;;;;;;;8.70;7.57;;;34.00;1.00;;;;;;5054913;28;20145;-67
2023/06/18 08:58:26;;;;;;;8.07;7.30;;;33.80;99.90;;;;;;5054809;28;20025;-67
2023/06/18 09:00:53;;;;;;;8.65;7.55;;;33.80;99.90;;;;;;5054764;28;20095;-67
2023/06/18 09:03:20;;;;;;;7.68;6.97;;;34.10;1.00;;;;;;5054915;28;20478;-67
2023/06/18 09:05:45;;;;;;;9.65;7.00;;;34.10;99.90;;;;;;5054829;28;20017;-67
2023/06/18 09:08:12;;;;;;;9.02;6.72;;;34.00;99.90;;;;;;5054698;28;20437;-67
2023/06/18 09:10:38;;;;;;;8.32;7.18;;;33.70;99.90;;;;;;5054814;28;20039;-68
2023/06/18 09:13:03;;;;;;;7.40;6.70;;;34.00;99.90;;;;;;5054832;28;20487;-67
2023/06/18 09:15:29;;;;;;;7.53;6.82;;;34.10;99.90;;;;;;5054286;28;20482;-67
2023/06/18 09:17:55;;;;;;;6.97;6.28;;;33.60;99.90;;;;;;5053335;28;20029;-67
2023/06/18 09:20:21;;;;;;;7.82;7.00;;;33.60;99.90;;;;;;5054648;28;20082;-67
2023/06/18 09:22:48;;;;;;;7.43;6.70;;;33.60;99.90;;;;;;5054587;28;20029;-67
2023/06/18 09:25:21;;;;;;;8.35;6.55;;;33.10;99.90;;;;;;5053179;28;20017;-67
2023/06/18 09:27:47;;;;;;;7.70;6.75;;;34.00;99.90;;;;;;5054067;28;20031;-67
2023/06/18 09:30:19;;;;;;;8.70;6.60;;;34.00;99.90;;;;;;5054173;28;20029;-67
2023/06/18 09:32:46;;;;;;;7.35;6.70;;;34.30;99.90;;;;;;5054256;28;20514;-67
2023/06/18 09:35:14;;;;;;;7.90;7.05;;;33.50;99.90;;;;;;5054179;28;20037;-68
2023/06/18 09:37:40;;;;;;;7.82;7.05;;;33.30;99.90;;;;;;5052788;28;20414;-68
2023/06/18 09:40:15;;;;;;;7.18;6.57;;;34.00;99.90;;;;;;5054340;28;20092;-67
2023/06/18 09:42:41;;;;;;;8.50;7.00;;;34.50;99.90;;;;;;5054074;28;20393;-68
2023/06/18 09:45:09;;;;;;;7.40;6.80;;;34.60;99.90;;;;;;5054103;28;20017;-68
2023/06/18 09:47:36;;;;;;;8.27;7.45;;;34.70;99.90;;;;;;5053990;28;20025;-67
2023/06/18 09:50:03;;;;;;;10.98;6.97;;;34.70;99.90;;;;;;5054040;28;20033;-67
2023/06/18 09:52:28;;;;;;;7.80;7.00;;;35.10;99.90;;;;;;5053780;28;20039;-67
2023/06/18 09:54:54;;;;;;;8.35;7.43;;;34.70;99.90;;;;;;5053959;28;20040;-68
2023/06/18 09:57:19;;;;;;;9.90;7.40;;;33.50;99.90;;;;;;5053848;28;20090;-67
2023/06/18 09:59:45;;;;;;;8.10;7.30;;;33.10;99.90;;;;;;5053772;28;20122;-67
2023/06/18 10:02:13;;;;;;;10.75;7.50;;;33.30;99.90;;;;;;5053888;28;20048;-68
2023/06/18 10:04:39;;;;;;;8.25;7.45;;;33.20;99.90;;;;;;5053644;28;20099;-67
2023/06/18 10:07:13;;;;;;;8.98;6.78;;;33.90;99.90;;;;;;5053948;28;20029;-67
2023/06/18 10:09:40;;;;;;;7.22;6.60;;;33.70;99.90;;;;;;5053360;28;20028;-67
2023/06/18 10:12:06;;;;;;;7.43;6.57;;;33.80;99.90;;;;;;5053473;28;20033;-67
2023/06/18 10:14:33;;;;;;;7.40;6.40;;;33.70;99.90;;;;;;5053279;28;20032;-67
2023/06/18 10:17:23;;;;;;;7.40;6.72;;;34.30;99.90;;;;;;5052377;28;20068;-67
2023/06/18 10:20:11;;;;;;;6.80;6.25;;;35.10;99.90;;;;;;5053384;28;20027;-68
2023/06/18 10:22:49;;;;;;;6.95;6.35;;;35.10;99.90;;;;;;5053454;28;20021;-68
2023/06/18 10:25:15;;;;;;;7.88;6.40;;;34.90;99.90;;;;;;5053539;28;20040;-68
2023/06/18 10:27:41;;;;;;;8.48;6.50;;;35.10;99.90;;;;;;5053103;28;20072;-68
2023/06/18 10:30:08;;;;;;;8.07;6.47;;;35.40;99.90;;;;;;5053300;28;20115;-67
2023/06/18 10:32:34;;;;;;;6.95;6.32;;;35.80;99.90;;;;;;5053286;28;20025;-68
2023/06/18 10:35:06;;;;;;;6.95;6.25;;;35.70;99.90;;;;;;5053380;28;20479;-68
2023/06/18 10:37:34;;;;;;;7.75;7.05;;;35.50;99.90;;;;;;5052678;28;20045;-68
2023/06/18 10:40:05;;;;;;;8.70;7.40;;;35.30;99.90;;;;;;5053355;28;20498;-67
2023/06/18 10:42:32;;;;;;;7.90;6.63;;;34.50;99.90;;;;;;5053087;28;20059;-68
2023/06/18 10:45:15;;;;;;;10.23;7.20;;;34.30;99.90;;;;;;5053281;28;20099;-67
2023/06/18 10:47:41;;;;;;;8.13;7.30;;;34.20;99.90;;;;;;5053157;28;20452;-68
2023/06/18 10:50:11;;;;;;;7.60;6.97;;;33.80;99.90;;;;;;5053057;28;20064;-67
2023/06/18 10:52:38;;;;;;;7.25;6.65;;;33.30;99.90;;;;;;5053153;28;20487;-68
2023/06/18 10:55:10;;;;;;;7.43;6.68;;;33.10;99.90;;;;;;5053136;28;20482;-67
2023/06/18 10:57:45;;;;;;;9.57;7.50;;;32.90;99.90;;;;;;5053044;28;20363;-68
2023/06/18 11:00:19;;;;;;;8.77;7.47;;;32.70;99.90;;;;;;5052995;28;20174;-68
2023/06/18 11:02:47;;;;;;;8.65;7.75;;;32.60;99.90;;;;;;5053188;28;20438;-67
2023/06/18 11:05:36;;;;;;;8.00;7.20;;;32.00;99.90;;;;;;5052904;28;20028;-67
2023/06/18 11:08:08;;;;;;;8.20;7.40;;;32.10;99.90;;;;;;5052915;28;20060;-67
2023/06/18 11:10:35;;;;;;;8.50;7.68;;;31.90;99.90;;;;;;5052788;28;20537;-67
2023/06/18 11:13:04;;;;;;;8.27;7.47;;;31.70;1.00;;;;;;5052994;28;20490;-67
2023/06/18 11:15:30;;;;;;;9.23;8.15;;;31.80;99.90;;;;;;5052917;28;20482;-67
2023/06/18 11:18:00;;;;;;;8.50;7.78;;;31.60;99.90;;;;;;5052799;28;20025;-68
2023/06/18 11:20:27;;;;;;;8.55;7.80;;;31.30;99.90;;;;;;5052881;28;20487;-67
2023/06/18 11:22:55;;;;;;;9.00;8.10;;;30.90;99.90;;;;;;5052761;28;20394;-67
2023/06/18 11:25:21;;;;;;;11.00;8.52;;;30.90;99.90;;;;;;5052730;28;20067;-67
2023/06/18 11:27:48;;;;;;;8.00;7.22;;;30.90;99.90;;;;;;5052589;28;20064;-67
2023/06/18 11:30:18;;;;;;;9.32;8.43;;;30.70;99.90;;;;;;5052898;28;20391;-67
2023/06/18 11:32:45;;;;;;;8.20;7.47;;;30.30;99.90;;;;;;5052876;28;20029;-67
2023/06/18 11:35:12;;;;;;;8.82;7.35;;;30.40;99.90;;;;;;5052839;28;20500;-67
2023/06/18 11:37:38;;;;;;;8.25;7.45;;;31.30;99.90;;;;;;5052368;28;20491;-67
2023/06/18 11:40:06;;;;;;;8.02;7.22;;;31.60;99.90;;;;;;5053512;28;20037;-67
2023/06/18 11:42:33;;;;;;;7.72;6.90;;;32.00;99.90;;;;;;5056201;28;20475;-67
2023/06/18 11:45:01;;;;;;;8.00;7.03;;;32.50;99.90;;;;;;5056448;28;20390;-67
2023/06/18 11:47:29;;;;;;;8.82;8.02;;;32.50;99.90;;;;;;5056387;28;20028;-67
2023/06/18 11:49:55;;;;;;;8.05;7.25;;;32.30;99.90;;;;;;5056301;28;20021;-67
2023/06/18 11:52:22;;;;;;;8.88;7.68;;;32.20;99.90;;;;;;5056295;28;20043;-67
2023/06/18 11:54:48;;;;;;;8.45;7.47;;;31.50;1.00;;;;;;5056057;28;20032;-67
2023/06/18 11:57:15;;;;;;;9.13;7.63;;;31.40;99.90;;;;;;5056174;28;20546;-68
2023/06/18 11:59:43;;;;;;;8.48;6.80;;;31.80;99.90;;;;;;5055710;28;20047;-68
2023/06/18 12:02:17;;;;;;;7.95;7.25;;;31.80;99.90;;;;;;5056172;28;20021;-67
2023/06/18 12:04:44;;;;;;;9.15;8.20;;;32.20;99.90;;;;;;5056172;28;20025;-68
2023/06/18 12:07:20;;;;;;;7.90;7.25;;;32.20;99.90;;;;;;5056084;28;20031;-67
2023/06/18 12:09:47;;;;;;;8.07;7.28;;;31.80;99.90;;;;;;5055964;28;20057;-68
2023/06/18 12:12:28;;;;;;;7.65;6.70;;;32.40;99.90;;;;;;5055959;28;20025;-68
2023/06/18 12:15:19;;;;;;;7.78;7.07;;;32.10;99.90;;;;;;5055699;28;20440;-67
2023/06/18 12:18:08;;;;;;;8.32;7.53;;;31.70;99.90;;;;;;5055689;28;20571;-67
2023/06/18 12:20:35;;;;;;;7.22;6.45;;;31.30;99.90;;;;;;5055448;28;20108;-67
2023/06/18 12:23:02;;;;;;;9.32;7.45;;;30.80;99.90;;;;;;5055553;28;20476;-68
2023/06/18 12:25:30;;;;;;;7.40;6.80;;;31.10;99.90;;;;;;5055494;28;20053;-68
2023/06/18 12:27:57;;;;;;;7.68;7.07;;;31.30;99.90;;;;;;5055461;28;20558;-67
2023/06/18 12:30:42;;;;;;;7.70;7.00;;;31.40;99.90;;;;;;5054225;28;20482;-67
2023/06/18 12:33:10;;;;;;;7.85;7.05;;;32.10;99.90;;;;;;5055755;28;20021;-67
2023/06/18 12:35:37;;;;;;;9.50;7.03;;;32.00;99.90;;;;;;5055529;28;20036;-68
2023/06/18 12:38:06;;;;;;;7.68;6.78;;;31.90;99.90;;;;;;5055012;28;20066;-67
2023/06/18 12:40:32;;;;;;;7.32;6.72;;;31.50;99.90;;;;;;5055193;28;20063;-67
2023/06/18 12:43:00;;;;;;;7.88;6.35;;;31.40;99.90;;;;;;5055211;28;20052;-67
2023/06/18 12:45:29;;;;;;;7.50;6.80;;;31.40;99.90;;;;;;5055333;28;20060;-68
2023/06/18 12:47:55;;;;;;;7.72;6.90;;;31.10;99.90;;;;;;5055216;28;20033;-67
2023/06/18 12:50:41;;;;;;;8.35;7.45;;;30.90;99.90;;;;;;5055085;28;20033;-68
2023/06/18 12:53:17;;;;;;;7.30;6.60;;;31.40;99.90;;;;;;5054977;28;20032;-67
2023/06/18 12:55:44;;;;;;;7.35;6.57;;;31.10;99.90;;;;;;5054891;28;20032;-67
2023/06/18 12:58:27;;;;;;;7.43;6.68;;;31.30;99.90;;;;;;5054533;28;20029;-67
2023/06/18 13:00:56;;;;;;;8.40;6.53;;;31.10;99.90;;;;;;5054912;28;20486;-67
2023/06/18 13:03:22;;;;;;;7.28;6.55;;;31.10;99.90;;;;;;5054859;28;20502;-68
2023/06/18 13:05:48;;;;;;;8.00;6.82;;;31.50;99.90;;;;;;5054779;28;20029;-67
2023/06/18 13:08:19;;;;;;;8.98;7.13;;;32.00;99.90;;;;;;5054909;28;20033;-68
2023/06/18 13:10:46;;;;;;;8.15;6.30;;;31.60;99.90;;;;;;5054702;28;20399;-67
2023/06/18 13:13:13;;;;;;;7.13;6.40;;;32.00;99.90;;;;;;5054840;28;20029;-68
2023/06/18 13:15:40;;;;;;;7.28;6.68;;;32.10;99.90;;;;;;5054868;28;20021;-67
2023/06/18 13:18:06;;;;;;;7.50;6.72;;;32.10;99.90;;;;;;5054410;28;20025;-67
2023/06/18 13:20:31;;;;;;;8.13;7.32;;;31.50;99.90;;;;;;5054657;28;20032;-67